Time;durP1;ratioP1;P1;durP2;ratioP2;P2;SDS_P1;SDS_P2;PMS_P1;PMS_P2;Temp;Humidity;BMP_temperature;BMP_pressure;BME280_temperature;BME280_humidity;BME280_pressure;Samples;Min_cycle;Max_cycle;Signal;HPM_P1;HPM_P2
2022/04/30 00:00:40;;;;;;;8.65;4.20;;;;;;;9.08;61.94;102821.81;5094308;28;20667;-61
2022/04/30 00:03:06;;;;;;;6.78;3.60;;;;;;;9.01;62.37;102812.72;5093882;28;20024;-61
2022/04/30 00:05:33;;;;;;;9.80;3.90;;;;;;;8.98;62.11;102807.28;5093824;28;20028;-61
2022/04/30 00:08:00;;;;;;;10.43;4.07;;;;;;;9.00;62.22;102810.91;5093934;28;20077;-61
2022/04/30 00:10:25;;;;;;;5.97;3.95;;;;;;;9.00;62.59;102817.09;5094083;28;20024;-61
2022/04/30 00:12:52;;;;;;;8.77;3.75;;;;;;;9.03;62.38;102811.94;5094123;28;20103;-61
2022/04/30 00:15:20;;;;;;;8.68;4.32;;;;;;;8.95;62.92;102808.06;5075673;28;20078;-61
2022/04/30 00:17:46;;;;;;;7.28;3.92;;;;;;;8.85;63.10;102808.41;5093866;28;20028;-61
2022/04/30 00:20:12;;;;;;;10.10;3.50;;;;;;;8.76;63.26;102815.88;5093014;28;20032;-61
2022/04/30 00:22:38;;;;;;;8.05;3.40;;;;;;;8.70;63.82;102807.69;5093594;28;20101;-61
2022/04/30 00:25:04;;;;;;;7.05;3.70;;;;;;;8.65;63.90;102815.34;5093684;28;20469;-61
2022/04/30 00:27:31;;;;;;;5.35;3.72;;;;;;;8.61;63.63;102808.13;5093642;28;20020;-61
2022/04/30 00:29:58;;;;;;;7.13;3.80;;;;;;;8.69;64.02;102812.03;5093532;28;20477;-61
2022/04/30 00:32:24;;;;;;;8.88;3.70;;;;;;;8.72;63.57;102812.19;5093645;28;20036;-61
2022/04/30 00:34:49;;;;;;;6.63;3.58;;;;;;;8.75;63.95;102811.44;5093421;28;20114;-62
2022/04/30 00:37:14;;;;;;;8.43;3.88;;;;;;;8.69;63.66;102812.03;5093471;28;20028;-61
2022/04/30 00:39:40;;;;;;;8.57;3.70;;;;;;;8.61;63.94;102808.13;5093442;28;20479;-62
2022/04/30 00:42:10;;;;;;;6.13;3.40;;;;;;;8.53;64.35;102805.09;5093368;28;20536;-61
2022/04/30 00:44:35;;;;;;;5.70;3.58;;;;;;;8.55;63.91;102805.16;5093309;28;20036;-61
2022/04/30 00:47:00;;;;;;;6.95;3.63;;;;;;;8.52;64.47;102799.72;5093416;28;20099;-62
2022/04/30 00:49:26;;;;;;;6.05;3.63;;;;;;;8.50;64.58;102801.41;5093211;28;20046;-61
2022/04/30 00:51:54;;;;;;;6.65;3.67;;;;;;;8.50;64.54;102801.41;5093269;28;20081;-61
2022/04/30 00:54:22;;;;;;;8.40;3.90;;;;;;;8.50;63.95;102798.75;5093106;28;20047;-61
2022/04/30 00:56:51;;;;;;;6.38;3.60;;;;;;;8.43;64.36;102794.91;5093511;28;20025;-61
2022/04/30 00:59:19;;;;;;;6.82;3.53;;;;;;;8.47;64.14;102795.97;5093186;28;20110;-61
2022/04/30 01:01:46;;;;;;;9.95;3.80;;;;;;;8.41;64.97;102790.41;5093224;28;20480;-61
2022/04/30 01:04:12;;;;;;;7.85;3.92;;;;;;;8.38;64.51;102793.75;5093028;28;20016;-61
2022/04/30 01:06:50;;;;;;;7.60;3.67;;;;;;;8.34;65.42;102796.13;5093643;28;20035;-61
2022/04/30 01:09:31;;;;;;;6.53;3.58;;;;;;;8.31;65.40;102791.63;5093925;28;20443;-61
2022/04/30 01:12:11;;;;;;;9.50;3.90;;;;;;;8.28;64.96;102786.19;5093163;28;20032;-62
2022/04/30 01:14:41;;;;;;;8.32;3.90;;;;;;;8.29;64.84;102793.25;5092979;28;20032;-62
2022/04/30 01:17:08;;;;;;;8.13;3.58;;;;;;;8.29;64.99;102788.00;5092979;28;20024;-61
2022/04/30 01:19:39;;;;;;;6.57;3.58;;;;;;;8.21;65.76;102786.69;5093014;28;20106;-61
2022/04/30 01:22:10;;;;;;;6.47;3.67;;;;;;;8.18;65.60;102791.78;5092844;28;20027;-61
2022/04/30 01:24:36;;;;;;;7.93;3.88;;;;;;;8.11;66.25;102794.97;5093069;28;20393;-61
2022/04/30 01:27:05;;;;;;;8.55;4.20;;;;;;;8.07;67.02;102793.88;5093132;28;20070;-61
2022/04/30 01:29:30;;;;;;;7.10;3.75;;;;;;;8.07;66.58;102791.25;5092695;28;20469;-61
2022/04/30 01:37:28;;;;;;;6.60;3.72;;;;;;;8.01;67.00;102783.94;5097085;28;20039;-61
2022/04/30 01:40:03;;;;;;;6.80;3.53;;;;;;;7.97;66.42;102781.97;5096701;28;20024;-61
2022/04/30 01:42:31;;;;;;;7.90;4.10;;;;;;;7.95;67.01;102786.25;5096727;28;20465;-61
2022/04/30 01:44:58;;;;;;;7.25;3.92;;;;;;;7.97;66.86;102776.72;5096646;28;20051;-61
2022/04/30 01:47:24;;;;;;;9.32;4.22;;;;;;;8.02;66.86;102783.13;5096810;28;20027;-61
2022/04/30 01:49:50;;;;;;;8.30;4.10;;;;;;;8.01;66.63;102778.69;5096665;28;20024;-61
2022/04/30 01:52:16;;;;;;;9.60;3.90;;;;;;;8.02;66.63;102780.50;5096621;28;20078;-61
2022/04/30 01:54:42;;;;;;;7.65;3.92;;;;;;;8.05;66.92;102774.50;5096329;28;20048;-61
2022/04/30 01:57:08;;;;;;;9.32;4.10;;;;;;;8.02;67.00;102780.50;5096556;28;20443;-61
2022/04/30 01:59:34;;;;;;;9.52;4.30;;;;;;;8.08;65.83;102779.00;5096412;28;20028;-62
2022/04/30 02:01:59;;;;;;;9.75;4.47;;;;;;;7.96;66.53;102768.72;5096460;28;20099;-61
2022/04/30 02:04:27;;;;;;;8.63;3.78;;;;;;;7.98;66.74;102778.50;5096311;28;20392;-61
2022/04/30 02:06:53;;;;;;;9.73;4.18;;;;;;;7.99;66.36;102777.69;5096323;28;20446;-61
2022/04/30 02:09:20;;;;;;;9.95;4.43;;;;;;;8.01;67.29;102769.88;5096080;28;20028;-61
2022/04/30 02:11:47;;;;;;;9.23;4.57;;;;;;;8.01;67.39;102764.63;5096421;28;20027;-61
2022/04/30 02:14:15;;;;;;;6.28;4.18;;;;;;;7.98;67.17;102768.00;5096141;28;20039;-61
2022/04/30 02:16:42;;;;;;;8.48;4.50;;;;;;;7.96;66.83;102768.72;5096096;28;20461;-61
2022/04/30 02:19:08;;;;;;;6.97;4.10;;;;;;;7.89;67.38;102767.50;5096046;28;20024;-61
2022/04/30 02:21:35;;;;;;;10.10;4.63;;;;;;;7.86;67.49;102761.19;5096051;28;20035;-62
2022/04/30 02:24:02;;;;;;;7.47;4.32;;;;;;;7.84;67.39;102761.09;5095877;28;20086;-61
2022/04/30 02:26:28;;;;;;;10.50;4.93;;;;;;;7.76;67.03;102758.06;5096193;28;20050;-61
2022/04/30 02:28:56;;;;;;;9.32;5.00;;;;;;;7.73;67.55;102764.88;5096043;28;20096;-61
2022/04/30 02:31:25;;;;;;;8.20;4.97;;;;;;;7.72;68.20;102761.34;5095844;28;20032;-61
2022/04/30 02:33:57;;;;;;;9.73;4.80;;;;;;;7.62;68.01;102753.78;5095628;28;20028;-61
2022/04/30 02:36:26;;;;;;;10.70;5.25;;;;;;;7.62;68.93;102753.78;5095721;28;20024;-61
2022/04/30 02:38:59;;;;;;;9.65;5.15;;;;;;;7.58;67.92;102748.28;5095624;28;20397;-61
2022/04/30 02:41:26;;;;;;;9.35;5.32;;;;;;;7.60;68.73;102746.63;5095550;28;20106;-61
2022/04/30 02:43:54;;;;;;;11.07;4.88;;;;;;;7.67;68.56;102751.41;5094738;28;20496;-61
2022/04/30 02:46:20;;;;;;;9.90;5.32;;;;;;;7.61;67.90;102746.72;5095479;28;20028;-61
2022/04/30 02:48:46;;;;;;;11.00;5.65;;;;;;;7.63;68.15;102744.19;5095442;28;20020;-61
2022/04/30 02:51:12;;;;;;;13.02;5.35;;;;;;;7.65;68.11;102748.69;5095392;28;20016;-61
2022/04/30 02:53:38;;;;;;;9.32;5.15;;;;;;;7.55;68.35;102737.59;5095155;28;20048;-61
2022/04/30 02:56:07;;;;;;;9.13;5.22;;;;;;;7.55;68.29;102742.88;5095504;28;20024;-61
2022/04/30 03:01:19;;;;;;;9.88;5.38;;;;;;;7.50;68.94;102742.63;5095368;28;20062;-61
2022/04/30 03:03:45;;;;;;;8.65;5.05;;;;;;;7.54;67.59;102744.59;5095107;28;20032;-62
2022/04/30 03:06:13;;;;;;;9.55;5.40;;;;;;;7.50;68.27;102738.25;5095166;28;20039;-61
2022/04/30 03:08:39;;;;;;;8.52;5.68;;;;;;;7.53;67.68;102737.50;5095189;28;20024;-61
2022/04/30 03:11:07;;;;;;;12.05;5.45;;;;;;;7.52;68.23;102740.97;5095065;28;20457;-60
2022/04/30 03:13:36;;;;;;;8.60;5.43;;;;;;;7.50;68.56;102747.88;5095491;28;20446;-61
2022/04/30 03:21:42;;;;;;;8.30;5.40;;;;;;;7.39;68.64;102738.50;5094690;28;20042;-61
2022/04/30 03:24:09;;;;;;;9.10;5.15;;;;;;;7.39;68.98;102742.03;5094673;28;20389;-61
2022/04/30 03:26:34;;;;;;;10.15;5.30;;;;;;;7.42;68.58;102742.22;5094788;28;20032;-61
2022/04/30 03:29:00;;;;;;;9.73;5.78;;;;;;;7.43;68.41;102740.47;5094510;28;20020;-62
2022/04/30 03:31:26;;;;;;;11.30;5.55;;;;;;;7.45;68.59;102738.81;5094640;28;20103;-61
2022/04/30 03:33:51;;;;;;;10.25;5.70;;;;;;;7.43;68.60;102733.50;5094683;28;20024;-61
2022/04/30 03:36:19;;;;;;;11.43;6.10;;;;;;;7.38;68.77;102724.44;5094532;28;20081;-61
2022/04/30 03:38:45;;;;;;;9.57;5.72;;;;;;;7.37;68.33;102714.75;5094529;28;20032;-61
2022/04/30 03:41:11;;;;;;;10.40;5.55;;;;;;;7.37;68.10;102719.13;5094625;28;20099;-61
2022/04/30 03:43:36;;;;;;;10.45;5.55;;;;;;;7.41;68.25;102729.88;5094474;28;20496;-61
2022/04/30 03:46:02;;;;;;;9.65;5.75;;;;;;;7.44;68.75;102722.13;5076154;28;20473;-61
2022/04/30 03:48:28;;;;;;;10.90;6.07;;;;;;;7.42;68.61;102717.63;5094595;28;20134;-61
2022/04/30 03:50:56;;;;;;;9.32;5.95;;;;;;;7.40;68.22;102714.91;5094296;28;20538;-61
2022/04/30 03:53:22;;;;;;;10.77;6.05;;;;;;;7.37;68.49;102722.66;5094018;28;20404;-61
2022/04/30 03:55:47;;;;;;;10.88;6.10;;;;;;;7.36;68.62;102710.28;5093292;28;20016;-61
2022/04/30 03:58:12;;;;;;;11.73;6.72;;;;;;;7.39;68.96;102726.25;5094281;28;20435;-61
2022/04/30 04:00:38;;;;;;;12.07;6.40;;;;;;;7.37;68.07;102717.38;5094043;28;20024;-61
2022/04/30 04:03:03;;;;;;;10.80;6.60;;;;;;;7.42;68.28;102718.53;5094204;28;20477;-61
2022/04/30 04:05:31;;;;;;;11.43;6.28;;;;;;;7.37;68.18;102720.03;5094091;28;20043;-61
2022/04/30 04:07:57;;;;;;;10.52;6.35;;;;;;;7.36;68.80;102722.53;5093873;28;20028;-61
2022/04/30 04:10:23;;;;;;;10.25;6.90;;;;;;;7.31;68.57;102722.31;5093861;28;20062;-61
2022/04/30 04:12:50;;;;;;;12.35;6.43;;;;;;;7.27;68.96;102730.84;5093773;28;20032;-61
2022/04/30 04:17:59;;;;;;;12.75;6.65;;;;;;;7.17;69.64;102729.44;5093018;28;20031;-61
2022/04/30 04:20:25;;;;;;;8.45;6.00;;;;;;;7.21;69.22;102730.53;5093108;28;20020;-61
2022/04/30 04:22:52;;;;;;;9.90;6.32;;;;;;;7.18;69.38;102722.47;5093091;28;20389;-61
2022/04/30 04:28:15;;;;;;;11.57;6.07;;;;;;;7.22;69.73;102730.59;5030452;28;20080;-61
2022/04/30 04:30:40;;;;;;;12.93;6.43;;;;;;;7.24;69.08;102731.59;5030875;28;20026;-61
2022/04/30 04:33:05;;;;;;;10.07;6.03;;;;;;;7.31;69.04;102732.81;5030512;28;20017;-61
2022/04/30 04:35:31;;;;;;;10.30;6.35;;;;;;;7.31;69.86;102731.91;5030679;28;20025;-61
2022/04/30 04:37:56;;;;;;;10.98;6.70;;;;;;;7.19;70.00;102725.16;5030431;28;20380;-61
2022/04/30 04:40:22;;;;;;;11.35;6.68;;;;;;;7.27;70.01;102738.72;5030586;28;20065;-62
2022/04/30 04:42:47;;;;;;;11.70;6.45;;;;;;;7.32;69.45;102734.63;5030386;28;20479;-61
2022/04/30 04:45:14;;;;;;;11.35;6.38;;;;;;;7.35;69.10;102728.63;5030455;28;20116;-61
2022/04/30 04:47:44;;;;;;;11.95;6.45;;;;;;;7.42;69.53;102739.56;5030517;28;20029;-61
2022/04/30 04:50:13;;;;;;;12.77;6.25;;;;;;;7.43;69.19;102737.84;5030517;28;20429;-61
2022/04/30 04:52:40;;;;;;;11.77;6.93;;;;;;;7.45;69.05;102734.50;5029653;28;20049;-62
2022/04/30 04:55:06;;;;;;;13.07;6.65;;;;;;;7.47;69.56;102745.09;5010670;28;20514;-62
2022/04/30 04:57:31;;;;;;;13.63;6.38;;;;;;;7.57;69.13;102752.63;5010665;28;20076;-61
2022/04/30 04:59:58;;;;;;;9.55;6.07;;;;;;;7.66;67.89;102755.75;5010630;28;20058;-61
2022/04/30 05:02:28;;;;;;;11.52;6.82;;;;;;;7.74;67.66;102756.16;5010526;28;20034;-61
2022/04/30 05:04:54;;;;;;;10.68;6.70;;;;;;;7.81;68.17;102758.31;5068970;28;20116;-61
2022/04/30 05:07:19;;;;;;;14.70;7.03;;;;;;;7.93;67.86;102766.84;5076297;28;20413;-61
2022/04/30 05:09:44;;;;;;;11.73;6.57;;;;;;;8.01;68.29;102769.88;5078908;28;20357;-63
2022/04/30 05:12:10;;;;;;;12.15;6.63;;;;;;;8.03;68.17;102768.22;5079074;28;20028;-61
2022/04/30 05:14:35;;;;;;;11.07;7.25;;;;;;;8.06;68.91;102765.75;5079098;28;20361;-61
2022/04/30 05:17:03;;;;;;;11.43;6.88;;;;;;;8.10;68.69;102769.47;5078903;28;20064;-61
2022/04/30 05:19:28;;;;;;;14.35;7.40;;;;;;;8.21;69.07;102781.44;5078981;28;20040;-61
2022/04/30 05:21:53;;;;;;;11.23;7.53;;;;;;;8.20;69.01;102779.63;5078879;28;20020;-61
2022/04/30 05:24:19;;;;;;;13.88;7.32;;;;;;;8.25;69.04;102771.13;5078867;28;20158;-61
2022/04/30 05:26:44;;;;;;;13.65;7.43;;;;;;;8.35;69.36;102771.59;5078864;28;20031;-61
2022/04/30 05:29:10;;;;;;;13.50;7.45;;;;;;;8.44;68.61;102766.84;5078782;28;20501;-61
2022/04/30 05:31:36;;;;;;;12.43;7.30;;;;;;;8.51;69.41;102763.66;5078666;28;20029;-61
2022/04/30 05:34:01;;;;;;;21.98;7.80;;;;;;;8.63;68.78;102768.66;5078846;28;20487;-61
2022/04/30 05:36:26;;;;;;;22.08;8.55;;;;;;;8.67;68.37;102753.06;5078862;28;20534;-61
2022/04/30 05:38:52;;;;;;;22.08;7.88;;;;;;;8.78;68.96;102759.78;5078687;28;20032;-62
2022/04/30 05:41:18;;;;;;;13.63;7.25;;;;;;;8.82;68.29;102767.81;5078643;28;20036;-61
2022/04/30 05:43:43;;;;;;;19.17;7.60;;;;;;;8.94;68.02;102765.78;5078407;28;20021;-61
2022/04/30 05:46:09;;;;;;;35.30;8.27;;;;;;;8.98;68.08;102771.25;5078640;28;20104;-61
2022/04/30 05:48:35;;;;;;;16.48;7.43;;;;;;;9.13;68.07;102770.22;5078530;28;20056;-61
2022/04/30 05:51:02;;;;;;;16.08;8.07;;;;;;;9.13;68.24;102747.38;5078821;28;20533;-61
2022/04/30 05:53:28;;;;;;;18.27;7.60;;;;;;;9.44;67.39;102777.81;5085822;28;20040;-61
2022/04/30 05:55:54;;;;;;;22.95;7.90;;;;;;;9.56;67.23;102775.75;5098807;28;20122;-61
2022/04/30 05:58:20;;;;;;;26.40;10.02;;;;;;;9.68;66.79;102764.84;5098637;28;20085;-61
2022/04/30 06:00:46;;;;;;;20.55;7.78;;;;;;;9.74;66.25;102768.66;5098788;28;20496;-61
2022/04/30 06:03:12;;;;;;;17.13;7.57;;;;;;;9.88;66.50;102771.00;5098730;28;20163;-61
2022/04/30 06:05:37;;;;;;;18.05;7.13;;;;;;;10.02;66.21;102773.44;5098651;28;20089;-61
2022/04/30 06:08:06;;;;;;;17.17;7.35;;;;;;;10.23;65.92;102770.81;5098826;28;20031;-61
2022/04/30 06:10:33;;;;;;;15.23;7.40;;;;;;;10.39;65.18;102780.31;5098586;28;20020;-61
2022/04/30 06:13:00;;;;;;;18.50;7.38;;;;;;;10.51;64.87;102774.66;5098381;28;20446;-62
2022/04/30 06:15:28;;;;;;;20.25;8.13;;;;;;;10.60;64.50;102768.88;5098561;28;20028;-61
2022/04/30 06:17:53;;;;;;;16.42;7.57;;;;;;;10.74;64.14;102770.31;5097604;28;20043;-61
2022/04/30 06:20:18;;;;;;;18.77;7.40;;;;;;;10.85;64.03;102769.03;5095395;28;20020;-61
2022/04/30 06:22:44;;;;;;;15.10;7.00;;;;;;;10.99;63.22;102767.81;5095371;28;20063;-61
2022/04/30 06:25:10;;;;;;;16.35;6.60;;;;;;;11.19;62.79;102779.22;5095287;28;20016;-61
2022/04/30 06:27:36;;;;;;;13.70;6.75;;;;;;;11.36;62.57;102773.66;5095162;28;20385;-61
2022/04/30 06:30:02;;;;;;;11.68;6.65;;;;;;;11.49;62.47;102771.53;5095221;28;20408;-61
2022/04/30 06:32:27;;;;;;;16.23;7.03;;;;;;;11.66;61.54;102776.56;5095196;28;20034;-61
2022/04/30 06:34:53;;;;;;;16.30;6.97;;;;;;;11.67;60.59;102781.91;5095357;28;20028;-61
2022/04/30 06:37:18;;;;;;;15.05;6.97;;;;;;;11.74;60.41;102788.34;5098065;28;20098;-61
2022/04/30 06:39:45;;;;;;;12.20;6.43;;;;;;;11.90;60.43;102781.88;5100193;28;20453;-61
2022/04/30 06:42:10;;;;;;;14.40;6.68;;;;;;;12.00;59.89;102777.00;5096176;28;20465;-62
2022/04/30 06:44:36;;;;;;;12.35;6.28;;;;;;;12.17;60.51;102771.41;5095232;28;20057;-61
2022/04/30 06:47:02;;;;;;;11.77;6.50;;;;;;;12.32;59.09;102771.00;5094906;28;20095;-61
2022/04/30 06:49:27;;;;;;;14.52;6.43;;;;;;;12.44;58.59;102774.97;5095273;28;20047;-61
2022/04/30 06:51:53;;;;;;;13.32;6.80;;;;;;;12.59;57.98;102771.03;5094862;28;20465;-61
2022/04/30 06:57:11;;;;;;;13.02;6.90;;;;;;;13.02;56.29;102768.06;5094956;28;20078;-61
2022/04/30 06:59:41;;;;;;;13.23;7.00;;;;;;;13.08;56.00;102770.88;5094730;28;20032;-61
2022/04/30 07:02:17;;;;;;;13.25;6.57;;;;;;;13.19;55.34;102772.13;5076518;28;20453;-62
2022/04/30 07:04:43;;;;;;;12.05;6.35;;;;;;;13.25;54.56;102775.00;5094533;28;20545;-61
2022/04/30 07:07:10;;;;;;;14.27;6.50;;;;;;;13.48;54.74;102772.13;5094621;28;20030;-61
2022/04/30 07:09:35;;;;;;;12.20;6.10;;;;;;;13.50;53.68;102773.09;5094399;28;20082;-61
2022/04/30 07:12:04;;;;;;;11.15;6.20;;;;;;;13.47;54.23;102775.63;5094892;28;20465;-61
2022/04/30 07:14:32;;;;;;;12.60;6.53;;;;;;;13.62;53.59;102775.16;5094304;28;20024;-62
2022/04/30 07:16:57;;;;;;;11.13;6.57;;;;;;;13.75;53.05;102778.25;5094570;28;20058;-61
2022/04/30 07:19:23;;;;;;;11.55;5.93;;;;;;;13.78;52.76;102780.97;5094171;28;20062;-61
2022/04/30 07:21:48;;;;;;;10.52;6.20;;;;;;;13.92;52.07;102783.16;5076032;28;20381;-61
2022/04/30 07:24:14;;;;;;;10.77;6.47;;;;;;;14.00;51.92;102777.19;5093910;28;20111;-61
2022/04/30 07:26:39;;;;;;;11.73;6.20;;;;;;;13.95;51.66;102775.25;5094230;28;20067;-61
2022/04/30 07:29:05;;;;;;;12.65;6.30;;;;;;;14.01;52.62;102778.09;5094084;28;20024;-61
2022/04/30 07:31:30;;;;;;;8.73;6.05;;;;;;;14.23;51.35;102775.16;5094109;28;20035;-62
2022/04/30 07:33:55;;;;;;;15.32;7.13;;;;;;;14.57;50.65;102776.06;5094137;28;20024;-61
2022/04/30 07:36:21;;;;;;;12.77;5.78;;;;;;;14.94;50.12;102772.50;5094064;28;20126;-61
2022/04/30 07:38:46;;;;;;;10.80;7.18;;;;;;;15.00;49.49;102764.69;5094058;28;20481;-61
2022/04/30 07:41:11;;;;;;;12.98;6.15;;;;;;;15.15;49.17;102765.88;5093911;28;20035;-60
2022/04/30 07:43:37;;;;;;;14.70;6.60;;;;;;;15.39;47.47;102763.78;5093765;28;20028;-60
2022/04/30 07:46:02;;;;;;;12.60;6.30;;;;;;;15.70;47.14;102768.00;5093777;28;20039;-60
2022/04/30 07:48:27;;;;;;;10.45;5.70;;;;;;;15.82;47.77;102769.13;5093656;28;20028;-60
2022/04/30 07:50:57;;;;;;;10.85;5.40;;;;;;;15.86;46.81;102765.66;5093599;28;20055;-60
2022/04/30 07:53:23;;;;;;;12.68;5.57;;;;;;;15.76;45.98;102767.25;5093530;28;20101;-60
2022/04/30 07:55:49;;;;;;;14.65;5.57;;;;;;;15.75;46.25;102768.09;5093448;28;20106;-60
2022/04/30 07:58:14;;;;;;;9.43;5.70;;;;;;;15.68;46.39;102764.44;5093769;28;20103;-60
2022/04/30 08:00:39;;;;;;;8.95;5.32;;;;;;;15.78;46.49;102757.50;5093471;28;20461;-61
2022/04/30 08:03:05;;;;;;;8.73;5.22;;;;;;;15.59;47.18;102752.63;5093211;28;20052;-60
2022/04/30 08:05:30;;;;;;;10.02;5.20;;;;;;;15.41;47.19;102755.81;5093733;28;20020;-61
2022/04/30 08:07:56;;;;;;;11.63;7.03;;;;;;;15.16;47.89;102749.97;5093166;28;20423;-59
2022/04/30 08:10:22;;;;;;;72.45;9.68;;;;;;;14.91;47.82;102747.59;5093600;28;20158;-61
2022/04/30 08:12:51;;;;;;;9.10;5.10;;;;;;;14.84;48.45;102754.53;5092983;28;20485;-60
2022/04/30 08:15:16;;;;;;;7.00;4.60;;;;;;;14.83;48.52;102757.16;5093332;28;20465;-59
2022/04/30 08:17:41;;;;;;;8.82;4.95;;;;;;;14.87;49.08;102756.38;5093068;28;20027;-59
2022/04/30 08:20:08;;;;;;;8.40;4.70;;;;;;;14.90;48.83;102754.69;5093258;28;20056;-59
2022/04/30 08:22:33;;;;;;;9.55;4.80;;;;;;;14.83;48.11;102755.41;5093011;28;20039;-61
2022/04/30 08:25:02;;;;;;;11.90;5.10;;;;;;;14.64;48.77;102764.69;5093097;28;20016;-60
2022/04/30 08:27:27;;;;;;;14.38;4.65;;;;;;;14.78;49.08;102754.41;5092974;28;20027;-60
2022/04/30 08:29:53;;;;;;;11.18;4.70;;;;;;;14.83;48.60;102746.53;5092972;28;20483;-58
2022/04/30 08:32:19;;;;;;;17.08;5.00;;;;;;;14.74;49.00;102749.88;5093082;28;20067;-60
2022/04/30 08:34:45;;;;;;;21.77;5.68;;;;;;;14.57;48.81;102741.47;5092803;28;20457;-60
2022/04/30 08:37:10;;;;;;;9.20;4.57;;;;;;;14.55;49.08;102751.16;5093721;28;20069;-60
2022/04/30 08:39:36;;;;;;;12.90;4.72;;;;;;;14.42;49.43;102741.03;5094118;28;20028;-60
2022/04/30 08:42:04;;;;;;;8.00;4.50;;;;;;;14.64;48.40;102743.41;5093478;28;20020;-58
2022/04/30 08:44:30;;;;;;;10.10;4.53;;;;;;;14.74;48.69;102732.13;5093437;28;20032;-58
2022/04/30 08:46:56;;;;;;;9.32;4.53;;;;;;;14.87;48.23;102729.75;5092762;28;20641;-60
2022/04/30 08:49:22;;;;;;;10.05;4.60;;;;;;;14.84;47.94;102729.69;5092602;28;20493;-61
2022/04/30 08:51:47;;;;;;;12.43;4.60;;;;;;;14.94;47.10;102724.59;5092575;28;20024;-60
2022/04/30 08:54:13;;;;;;;7.80;4.32;;;;;;;14.88;48.02;102727.13;5092595;28;20072;-59
2022/04/30 08:56:38;;;;;;;15.00;4.32;;;;;;;14.83;48.50;102734.09;5092762;28;20095;-60
2022/04/30 08:59:07;;;;;;;9.32;4.38;;;;;;;14.85;47.34;102731.47;5092608;28;20086;-60
2022/04/30 09:01:46;;;;;;;9.80;4.45;;;;;;;14.74;47.87;102733.91;5092380;28;20024;-60
2022/04/30 09:04:11;;;;;;;9.23;4.78;;;;;;;14.67;48.77;102718.63;5092835;28;20112;-60
2022/04/30 09:06:47;;;;;;;10.20;5.00;;;;;;;14.45;49.33;102727.81;5092459;28;20052;-59
2022/04/30 09:09:22;;;;;;;9.93;4.57;;;;;;;14.32;49.69;102728.38;5092657;28;20439;-59
2022/04/30 09:11:47;;;;;;;10.13;4.40;;;;;;;14.24;50.61;102733.50;5092378;28;20375;-59
2022/04/30 09:14:13;;;;;;;9.30;4.40;;;;;;;14.16;50.29;102735.06;5092445;28;20031;-62
2022/04/30 09:16:38;;;;;;;10.23;4.80;;;;;;;14.09;50.98;102731.34;5092544;28;20020;-62
2022/04/30 09:19:04;;;;;;;9.65;4.80;;;;;;;13.97;50.39;102725.69;5092445;28;20028;-62
2022/04/30 09:21:29;;;;;;;11.15;5.13;;;;;;;13.92;50.43;102732.66;5092427;28;20032;-62
2022/04/30 09:24:05;;;;;;;11.02;5.15;;;;;;;13.98;50.53;102724.84;5092055;28;20028;-62
2022/04/30 09:26:40;;;;;;;8.73;5.10;;;;;;;13.97;50.85;102725.69;5092295;28;20096;-62
2022/04/30 09:29:24;;;;;;;10.95;5.10;;;;;;;13.92;51.29;102719.38;5092194;28;20046;-60
2022/04/30 09:31:51;;;;;;;13.18;4.70;;;;;;;13.90;50.66;102721.06;5092243;28;20088;-59
2022/04/30 09:39:46;;;;;;;10.30;5.72;;;;;;;14.09;49.00;102719.78;5091987;28;20104;-59
2022/04/30 09:42:12;;;;;;;8.40;5.03;;;;;;;14.19;49.51;102716.53;5092523;28;20445;-60
2022/04/30 09:44:38;;;;;;;11.48;4.90;;;;;;;14.32;48.71;102710.66;5091886;28;20028;-61
2022/04/30 09:47:06;;;;;;;8.00;4.38;;;;;;;14.51;48.09;102712.03;5092141;28;20120;-61
2022/04/30 09:55:01;;;;;;;9.70;4.90;;;;;;;14.84;47.06;102703.06;5094895;28;20532;-60
2022/04/30 09:57:32;;;;;;;10.55;4.70;;;;;;;14.95;47.22;102694.47;5095898;28;20031;-61
2022/04/30 09:59:59;;;;;;;11.93;4.78;;;;;;;15.20;46.60;102702.97;5095698;28;20035;-61
2022/04/30 10:02:27;;;;;;;10.40;4.70;;;;;;;15.43;45.53;102690.16;5077532;28;20392;-61
2022/04/30 10:04:55;;;;;;;8.73;4.70;;;;;;;15.44;45.05;102692.84;5095640;28;20036;-61
2022/04/30 10:07:24;;;;;;;11.55;4.60;;;;;;;15.62;44.33;102694.06;5095822;28;20026;-60
2022/04/30 10:09:58;;;;;;;6.80;4.22;;;;;;;15.77;43.49;102689.97;5095975;28;20043;-60
2022/04/30 10:12:37;;;;;;;7.35;4.07;;;;;;;15.89;41.94;102683.09;5095411;28;20042;-60
2022/04/30 10:15:25;;;;;;;9.05;4.30;;;;;;;15.96;41.89;102685.84;5095574;28;20457;-60
2022/04/30 10:17:56;;;;;;;7.00;4.20;;;;;;;16.01;42.19;102677.94;5095503;28;20024;-60
2022/04/30 10:20:28;;;;;;;7.13;3.92;;;;;;;16.06;42.14;102675.34;5095429;28;20089;-61
2022/04/30 10:22:57;;;;;;;6.55;3.40;;;;;;;16.12;40.38;102673.72;5095084;28;20032;-60
2022/04/30 10:25:37;;;;;;;8.50;4.10;;;;;;;16.25;41.56;102667.69;5095448;28;20035;-60
2022/04/30 10:28:21;;;;;;;7.68;3.78;;;;;;;16.38;41.84;102666.13;5095339;28;20059;-60
2022/04/30 10:31:04;;;;;;;9.73;4.07;;;;;;;16.45;41.03;102661.81;5095348;28;20024;-60
2022/04/30 10:33:34;;;;;;;9.07;3.55;;;;;;;16.66;39.39;102672.81;5094812;28;20028;-60
2022/04/30 10:36:10;;;;;;;7.05;3.75;;;;;;;16.86;38.55;102669.53;5095199;28;20111;-60
2022/04/30 10:38:36;;;;;;;5.97;4.00;;;;;;;17.10;39.03;102661.88;5095144;28;20028;-60
2022/04/30 10:41:03;;;;;;;6.88;4.18;;;;;;;17.28;37.81;102662.09;5095240;28;20477;-61
2022/04/30 10:43:40;;;;;;;7.15;4.15;;;;;;;17.62;38.53;102659.81;5094913;28;20028;-60
2022/04/30 10:46:17;;;;;;;7.45;3.90;;;;;;;18.04;36.53;102655.78;5095311;28;20413;-60
2022/04/30 10:48:42;;;;;;;6.20;3.60;;;;;;;18.40;35.30;102655.19;5094939;28;20028;-60
2022/04/30 10:51:12;;;;;;;8.45;3.55;;;;;;;18.58;33.30;102648.16;5094977;28;20020;-60
2022/04/30 10:53:45;;;;;;;7.38;3.42;;;;;;;18.99;33.77;102643.97;5094613;28;20044;-60
2022/04/30 10:56:12;;;;;;;7.18;3.80;;;;;;;19.34;33.73;102651.25;5094947;28;20024;-60
2022/04/30 10:58:39;;;;;;;10.15;3.70;;;;;;;19.76;31.55;102637.06;5094538;28;20059;-60
2022/04/30 11:01:16;;;;;;;5.95;3.40;;;;;;;19.67;31.98;102637.06;5095031;28;20066;-60
2022/04/30 11:03:43;;;;;;;6.85;3.58;;;;;;;19.79;31.11;102629.94;5094596;28;20085;-60
2022/04/30 11:06:17;;;;;;;7.28;3.70;;;;;;;19.71;31.21;102629.91;5094045;28;20034;-62
2022/04/30 11:08:42;;;;;;;5.88;3.70;;;;;;;19.45;32.22;102627.16;5094706;28;20032;-61
2022/04/30 11:11:08;;;;;;;7.18;4.25;;;;;;;19.32;32.60;102628.03;5094366;28;20051;-60
2022/04/30 11:13:33;;;;;;;7.10;3.92;;;;;;;19.34;33.65;102635.16;5094680;28;20122;-61
2022/04/30 11:15:59;;;;;;;7.95;4.18;;;;;;;19.12;32.69;102618.13;5094340;28;20114;-60
2022/04/30 11:18:25;;;;;;;8.43;4.38;;;;;;;19.13;32.13;102627.94;5094352;28;20028;-60
2022/04/30 11:20:59;;;;;;;8.70;4.00;;;;;;;19.32;33.62;102622.66;5094210;28;20070;-61
2022/04/30 11:23:24;;;;;;;5.35;3.80;;;;;;;19.55;32.31;102614.66;5094683;28;20027;-60
2022/04/30 11:25:50;;;;;;;12.18;4.18;;;;;;;19.94;31.14;102612.03;5094094;28;20381;-61
2022/04/30 11:28:15;;;;;;;7.75;3.75;;;;;;;20.32;29.35;102604.88;5094562;28;20028;-61
2022/04/30 11:30:42;;;;;;;5.90;3.90;;;;;;;20.20;29.33;102597.72;5075899;28;20492;-62
2022/04/30 11:33:09;;;;;;;8.35;4.15;;;;;;;19.85;30.95;102609.34;5094152;28;20036;-60
2022/04/30 11:35:35;;;;;;;6.22;4.38;;;;;;;19.94;31.47;102606.69;5094285;28;20023;-61
2022/04/30 11:38:01;;;;;;;6.65;3.95;;;;;;;20.22;31.77;102596.81;5093985;28;20024;-60
2022/04/30 11:40:26;;;;;;;6.47;3.60;;;;;;;20.60;28.94;102592.28;5093893;28;20093;-61
2022/04/30 11:43:09;;;;;;;5.63;3.80;;;;;;;21.17;29.83;102592.97;5093810;28;20426;-60
2022/04/30 11:45:35;;;;;;;5.43;3.45;;;;;;;21.44;28.23;102597.31;5094195;28;20024;-61
2022/04/30 11:48:03;;;;;;;8.07;3.90;;;;;;;21.87;27.66;102588.91;5095178;28;20065;-60
2022/04/30 11:50:29;;;;;;;6.25;3.70;;;;;;;22.11;26.22;102585.13;5095562;28;20031;-60
2022/04/30 11:52:56;;;;;;;6.07;4.00;;;;;;;22.07;25.64;102578.88;5075978;28;20028;-61
2022/04/30 11:55:22;;;;;;;8.23;3.55;;;;;;;22.42;25.61;102580.34;5093762;28;20111;-60
2022/04/30 11:57:48;;;;;;;5.55;3.25;;;;;;;22.60;25.52;102580.13;5093770;28;20170;-61